createdAt,value
2019-04-30T00:01:55.789Z,99.90
2019-04-30T00:04:17.459Z,99.90
2019-04-30T00:06:28.875Z,99.90
2019-04-30T00:08:30.167Z,99.90
2019-04-30T00:10:41.235Z,99.90
2019-04-30T00:12:45.004Z,99.90
2019-04-30T00:14:49.166Z,99.90
2019-04-30T00:16:54.675Z,99.90
2019-04-30T00:19:00.872Z,99.90
2019-04-30T00:21:05.441Z,99.90
2019-04-30T00:23:09.631Z,99.90
2019-04-30T00:25:15.303Z,99.90
2019-04-30T00:27:21.088Z,99.90
2019-04-30T00:29:30.212Z,99.90
2019-04-30T00:31:30.879Z,99.90
2019-04-30T00:33:35.401Z,99.90
2019-04-30T00:35:45.289Z,99.90
2019-04-30T00:37:57.545Z,99.90
2019-04-30T00:40:30.248Z,99.90
2019-04-30T00:42:33.160Z,99.90
2019-04-30T00:44:37.264Z,99.90
2019-04-30T00:46:41.178Z,99.90
2019-04-30T00:48:52.641Z,99.90
2019-04-30T00:50:56.756Z,99.90
2019-04-30T00:53:07.268Z,99.90
2019-04-30T00:55:09.010Z,99.90
2019-04-30T00:57:12.218Z,99.90
2019-04-30T00:59:16.132Z,99.90
2019-04-30T01:01:58.619Z,99.90
2019-04-30T01:04:30.651Z,99.90
2019-04-30T01:06:49.805Z,99.90
2019-04-30T01:09:12.655Z,99.90
2019-04-30T01:11:16.623Z,99.90
2019-04-30T01:13:20.666Z,99.90
2019-04-30T01:15:24.779Z,99.90
2019-04-30T01:17:30.000Z,99.90
2019-04-30T01:19:34.209Z,99.90
2019-04-30T01:21:41.766Z,99.90
2019-04-30T01:23:51.742Z,99.90
2019-04-30T01:25:51.439Z,99.90
2019-04-30T01:27:55.647Z,99.90
2019-04-30T01:29:59.985Z,99.90
2019-04-30T01:32:04.007Z,99.90
2019-04-30T01:34:12.354Z,99.90
2019-04-30T01:36:13.766Z,99.90
2019-04-30T01:38:18.914Z,99.90
2019-04-30T01:40:22.926Z,99.90
2019-04-30T01:42:59.929Z,99.90
2019-04-30T01:45:04.082Z,99.90
2019-04-30T01:47:08.981Z,99.90
2019-04-30T01:49:16.079Z,99.90
2019-04-30T01:51:21.744Z,99.90
2019-04-30T01:53:25.677Z,99.90
2019-04-30T01:56:03.889Z,99.90
2019-04-30T01:58:20.369Z,99.90
2019-04-30T02:00:30.396Z,99.90
2019-04-30T02:02:39.483Z,99.90
2019-04-30T02:05:03.169Z,99.90
2019-04-30T02:07:19.577Z,99.90
2019-04-30T02:09:50.625Z,99.90
2019-04-30T02:12:15.569Z,99.90
2019-04-30T02:14:47.245Z,99.90
2019-04-30T02:17:03.461Z,99.90
2019-04-30T02:19:31.933Z,99.90
2019-04-30T02:21:35.935Z,99.90
2019-04-30T02:23:39.741Z,99.90
2019-04-30T02:25:43.910Z,99.90
2019-04-30T02:27:48.943Z,99.90
2019-04-30T02:29:52.870Z,99.90
2019-04-30T02:31:56.862Z,99.90
2019-04-30T02:34:10.162Z,99.90
2019-04-30T02:36:29.923Z,99.90
2019-04-30T02:38:35.812Z,99.90
2019-04-30T02:40:42.658Z,99.90
2019-04-30T02:42:45.577Z,99.90
2019-04-30T02:44:50.492Z,99.90
2019-04-30T02:47:00.127Z,99.90
2019-04-30T02:49:05.453Z,99.90
2019-04-30T02:51:26.385Z,99.90
2019-04-30T02:54:15.469Z,99.90
2019-04-30T02:56:29.908Z,99.90
2019-04-30T02:58:56.780Z,99.90
2019-04-30T03:01:05.220Z,99.90
2019-04-30T03:03:20.393Z,99.90
2019-04-30T03:08:15.917Z,99.90
2019-04-30T03:10:54.427Z,99.90
2019-04-30T03:13:05.718Z,99.90
2019-04-30T03:15:30.505Z,99.90
2019-04-30T03:17:52.056Z,99.90
2019-04-30T03:20:03.470Z,99.90
2019-04-30T03:22:34.734Z,99.90
2019-04-30T03:24:55.452Z,99.90
2019-04-30T03:27:09.702Z,99.90
2019-04-30T03:29:25.968Z,99.90
2019-04-30T03:31:44.070Z,99.90
2019-04-30T03:34:01.952Z,99.90
2019-04-30T03:36:21.348Z,99.90
2019-04-30T03:38:39.628Z,99.90
2019-04-30T03:40:50.245Z,99.90
2019-04-30T03:43:03.840Z,99.90
2019-04-30T03:45:33.180Z,99.90
2019-04-30T03:47:50.468Z,99.90
2019-04-30T03:50:22.210Z,99.90
2019-04-30T03:57:30.281Z,99.90
2019-04-30T03:59:52.206Z,99.90
2019-04-30T04:02:20.819Z,99.90
2019-04-30T04:04:52.839Z,99.90
2019-04-30T04:07:05.962Z,99.90
2019-04-30T04:09:16.581Z,99.90
2019-04-30T04:11:26.850Z,99.90
2019-04-30T04:13:33.129Z,99.90
2019-04-30T04:15:36.356Z,99.90
2019-04-30T04:17:40.732Z,99.90
2019-04-30T04:19:44.529Z,99.90
2019-04-30T04:21:50.970Z,99.90
2019-04-30T04:23:54.164Z,99.90
2019-04-30T04:25:59.576Z,99.90
2019-04-30T04:28:06.406Z,99.90
2019-04-30T04:30:10.861Z,99.90
2019-04-30T04:32:14.755Z,99.90
2019-04-30T04:34:19.891Z,99.90
2019-04-30T04:36:23.727Z,99.90
2019-04-30T04:38:30.182Z,99.90
2019-04-30T04:40:34.960Z,99.90
2019-04-30T04:43:00.318Z,99.90
2019-04-30T04:45:33.633Z,99.90
2019-04-30T04:48:09.657Z,99.90
2019-04-30T04:50:30.026Z,99.90
2019-04-30T04:53:07.770Z,99.90
2019-04-30T04:55:22.269Z,99.90
2019-04-30T04:57:41.831Z,99.90
2019-04-30T05:00:03.478Z,99.90
2019-04-30T05:02:34.427Z,99.90
2019-04-30T05:07:31.479Z,99.90
2019-04-30T05:10:01.477Z,99.90
2019-04-30T05:12:29.797Z,99.90
2019-04-30T05:14:49.020Z,99.90
2019-04-30T05:17:06.014Z,99.90
2019-04-30T05:19:18.527Z,99.90
2019-04-30T05:22:04.313Z,99.90
2019-04-30T05:24:38.433Z,99.90
2019-04-30T05:29:49.723Z,99.90
2019-04-30T05:32:15.214Z,99.90
2019-04-30T05:34:51.754Z,99.90
2019-04-30T05:39:33.957Z,99.90
2019-04-30T05:42:22.247Z,99.90
2019-04-30T05:44:32.583Z,99.90
2019-04-30T05:47:09.287Z,99.90
2019-04-30T05:49:24.958Z,99.90
2019-04-30T05:51:59.981Z,99.90
2019-04-30T05:54:33.219Z,99.90
2019-04-30T05:56:59.398Z,99.90
2019-04-30T05:59:31.158Z,99.90
2019-04-30T06:02:05.826Z,99.90
2019-04-30T06:04:49.496Z,99.90
2019-04-30T06:07:01.720Z,99.90
2019-04-30T06:23:04.895Z,99.90
2019-04-30T06:27:33.215Z,99.90
2019-04-30T06:30:30.282Z,99.90
2019-04-30T06:33:05.822Z,99.90
2019-04-30T06:35:43.428Z,99.90
2019-04-30T06:38:20.268Z,99.90
2019-04-30T06:40:36.390Z,99.90
2019-04-30T06:43:05.125Z,99.90
2019-04-30T06:48:41.924Z,99.90
2019-04-30T06:50:49.098Z,99.90
2019-04-30T06:53:09.345Z,99.90
2019-04-30T06:55:49.245Z,99.90
2019-04-30T06:58:20.433Z,99.90
2019-04-30T07:00:40.884Z,99.90
2019-04-30T07:02:59.096Z,99.90
2019-04-30T07:05:25.006Z,99.90
2019-04-30T07:08:09.901Z,99.90
2019-04-30T07:10:36.167Z,99.90
2019-04-30T07:13:39.498Z,99.90
2019-04-30T07:16:35.254Z,99.90
2019-04-30T07:22:39.692Z,99.90
2019-04-30T07:25:19.590Z,99.90
2019-04-30T07:27:24.335Z,99.90
2019-04-30T07:29:29.567Z,99.90
2019-04-30T07:31:33.773Z,99.90
2019-04-30T07:33:39.624Z,99.90
2019-04-30T07:35:43.723Z,99.90
2019-04-30T07:37:49.469Z,99.90
2019-04-30T07:39:53.434Z,99.90
2019-04-30T07:45:39.830Z,99.90
2019-04-30T07:48:09.235Z,99.90
2019-04-30T07:53:02.582Z,99.90
2019-04-30T07:55:23.293Z,99.90
2019-04-30T07:58:01.093Z,99.90
2019-04-30T08:00:19.352Z,99.90
2019-04-30T08:05:25.804Z,99.90
2019-04-30T08:08:19.106Z,99.90
2019-04-30T08:10:43.627Z,99.90
2019-04-30T08:13:33.681Z,99.90
2019-04-30T08:16:22.004Z,99.90
2019-04-30T08:18:54.449Z,99.90
2019-04-30T08:22:14.613Z,99.90
2019-04-30T08:24:06.443Z,99.90
2019-04-30T08:26:29.898Z,99.90
2019-04-30T08:28:54.296Z,99.90
2019-04-30T08:31:36.569Z,99.90
2019-04-30T08:34:12.413Z,99.90
2019-04-30T08:39:19.616Z,99.90
2019-04-30T08:41:49.288Z,99.90
2019-04-30T08:44:20.804Z,99.90
2019-04-30T08:50:25.552Z,99.90
2019-04-30T08:59:53.308Z,99.90
2019-04-30T09:05:32.647Z,99.90
2019-04-30T09:08:19.415Z,99.90
2019-04-30T09:13:25.349Z,99.90
2019-04-30T09:16:23.342Z,99.90
2019-04-30T09:22:56.514Z,99.90
2019-04-30T09:25:55.922Z,99.90
2019-04-30T09:28:41.127Z,99.90
2019-04-30T09:32:55.307Z,99.90
2019-04-30T09:35:40.856Z,99.90
2019-04-30T09:39:10.807Z,99.90
2019-04-30T09:42:01.291Z,99.90
2019-04-30T10:08:05.429Z,99.90
2019-04-30T10:11:05.206Z,99.90
2019-04-30T10:11:09.807Z,99.90
2019-04-30T10:11:44.385Z,99.90
2019-04-30T10:14:47.087Z,99.90
2019-04-30T10:21:29.021Z,99.90
2019-04-30T10:27:38.774Z,99.90
2019-04-30T10:30:50.763Z,99.90
2019-04-30T10:44:26.186Z,99.90
2019-04-30T10:46:37.157Z,99.50
2019-04-30T10:56:22.108Z,99.90
2019-04-30T11:15:06.682Z,97.10
2019-04-30T11:18:05.234Z,99.20
2019-04-30T11:42:24.808Z,90.00
2019-04-30T11:45:01.007Z,88.90
2019-04-30T11:48:22.149Z,89.50
2019-04-30T11:51:39.203Z,84.80
2019-04-30T11:58:48.855Z,81.00
2019-04-30T12:04:52.433Z,77.20
2019-04-30T12:29:41.190Z,72.60
2019-04-30T12:36:34.959Z,69.30
2019-04-30T12:46:14.796Z,69.10
2019-04-30T13:02:25.522Z,67.50
2019-04-30T13:13:23.512Z,65.70
2019-04-30T13:17:26.609Z,65.10
2019-04-30T13:27:22.334Z,65.90
2019-04-30T13:30:11.400Z,66.60
2019-04-30T13:40:20.301Z,65.60
2019-04-30T13:59:35.695Z,65.40
2019-04-30T14:22:00.923Z,67.20
2019-04-30T14:34:22.037Z,67.40
2019-04-30T14:41:15.638Z,67.40
2019-04-30T14:47:30.219Z,68.20
2019-04-30T14:50:02.711Z,67.60
2019-04-30T14:52:36.603Z,69.00
2019-04-30T14:58:16.108Z,69.10
2019-04-30T15:01:34.560Z,68.70
2019-04-30T15:03:51.576Z,69.30
2019-04-30T15:09:03.455Z,70.60
2019-04-30T15:11:22.648Z,70.00
2019-04-30T15:14:04.587Z,69.80
2019-04-30T15:16:32.887Z,70.10
2019-04-30T15:18:29.017Z,69.90
2019-04-30T15:20:59.545Z,69.70
2019-04-30T15:24:01.637Z,70.70
2019-04-30T15:26:59.847Z,70.40
2019-04-30T15:29:19.057Z,70.40
2019-04-30T15:32:02.923Z,70.30
2019-04-30T15:34:44.036Z,70.20
2019-04-30T15:37:23.811Z,71.10
2019-04-30T15:39:39.348Z,72.10
2019-04-30T15:41:48.355Z,70.50
2019-04-30T15:43:53.266Z,69.40
2019-04-30T15:45:57.523Z,70.80
2019-04-30T15:48:01.842Z,70.10
2019-04-30T15:50:06.459Z,69.30
2019-04-30T15:52:43.445Z,69.00
2019-04-30T15:54:56.298Z,68.80
2019-04-30T15:57:00.241Z,67.70
2019-04-30T15:59:40.654Z,68.40
2019-04-30T16:01:48.416Z,67.00
2019-04-30T16:03:54.628Z,67.20
2019-04-30T16:06:11.851Z,66.30
2019-04-30T16:08:21.117Z,65.00
2019-04-30T16:11:12.435Z,64.90
2019-04-30T16:13:21.288Z,65.20
2019-04-30T16:15:51.105Z,65.10
2019-04-30T16:18:00.311Z,65.20
2019-04-30T16:24:24.575Z,64.10
2019-04-30T16:26:31.882Z,64.20
2019-04-30T16:28:51.642Z,64.70
2019-04-30T16:31:23.623Z,64.90
2019-04-30T16:34:09.004Z,65.40
2019-04-30T16:36:32.507Z,65.20
2019-04-30T16:38:38.588Z,65.40
2019-04-30T16:40:42.558Z,66.60
2019-04-30T16:42:49.799Z,67.20
2019-04-30T16:45:01.425Z,66.80
2019-04-30T16:47:19.915Z,66.80
2019-04-30T16:49:49.270Z,66.70
2019-04-30T16:52:24.314Z,67.20
2019-04-30T16:54:28.834Z,67.50
2019-04-30T16:57:06.135Z,67.40
2019-04-30T16:59:19.720Z,67.80
2019-04-30T17:01:23.998Z,68.30
2019-04-30T17:03:38.805Z,67.90
2019-04-30T17:06:10.838Z,68.10
2019-04-30T17:08:49.446Z,68.20
2019-04-30T17:11:17.507Z,67.60
2019-04-30T17:13:59.533Z,66.70
2019-04-30T17:16:30.208Z,66.20
2019-04-30T17:18:50.526Z,67.00
2019-04-30T17:23:52.010Z,67.70
2019-04-30T17:26:04.197Z,68.10
2019-04-30T17:28:09.232Z,68.40
2019-04-30T17:30:19.340Z,68.40
2019-04-30T17:32:29.891Z,68.90
2019-04-30T17:34:41.920Z,69.20
2019-04-30T17:36:44.768Z,69.50
2019-04-30T17:38:54.837Z,69.70
2019-04-30T17:40:58.953Z,70.70
2019-04-30T17:43:03.499Z,71.10
2019-04-30T17:45:09.566Z,71.60
2019-04-30T17:47:14.118Z,71.70
2019-04-30T17:49:18.967Z,71.90
2019-04-30T17:51:23.577Z,72.30
2019-04-30T17:53:28.754Z,72.80
2019-04-30T17:58:16.235Z,73.00
2019-04-30T18:00:29.173Z,73.50
2019-04-30T18:02:30.067Z,73.80
2019-04-30T18:04:34.820Z,74.40
2019-04-30T18:06:38.797Z,74.70
2019-04-30T18:08:50.282Z,74.70
2019-04-30T18:10:54.336Z,75.20
2019-04-30T18:13:30.375Z,74.60
2019-04-30T18:15:34.636Z,74.70
2019-04-30T18:17:38.584Z,75.30
2019-04-30T18:20:01.325Z,76.20
2019-04-30T18:22:21.827Z,76.90
2019-04-30T18:24:39.267Z,77.50
2019-04-30T18:26:50.193Z,79.30
2019-04-30T18:28:54.762Z,79.40
2019-04-30T18:30:59.147Z,80.50
2019-04-30T18:33:04.381Z,81.10
2019-04-30T18:35:08.728Z,82.20
2019-04-30T18:37:16.360Z,83.10
2019-04-30T18:39:33.390Z,84.90
2019-04-30T18:42:13.263Z,85.30
2019-04-30T18:46:33.074Z,87.80
2019-04-30T18:49:02.601Z,90.60
2019-04-30T18:51:36.554Z,91.30
2019-04-30T18:54:07.753Z,92.70
2019-04-30T18:56:44.330Z,92.70
2019-04-30T18:59:19.648Z,95.50
2019-04-30T19:01:45.757Z,95.30
2019-04-30T19:04:22.358Z,96.90
2019-04-30T19:06:54.472Z,97.60
2019-04-30T19:09:44.033Z,99.10
2019-04-30T19:11:56.352Z,99.90
2019-04-30T19:14:26.456Z,99.90
2019-04-30T19:16:50.354Z,99.90
2019-04-30T19:19:22.398Z,99.90
2019-04-30T19:21:35.317Z,99.90
2019-04-30T19:23:39.700Z,99.90
2019-04-30T19:26:05.547Z,99.90
2019-04-30T19:28:14.301Z,99.90
2019-04-30T19:30:16.171Z,99.90
2019-04-30T19:32:20.486Z,99.90
2019-04-30T19:34:24.655Z,99.90
2019-04-30T19:36:37.403Z,99.90
2019-04-30T19:38:34.909Z,99.90
2019-04-30T19:40:39.266Z,99.90
2019-04-30T19:42:43.555Z,99.90
2019-04-30T19:44:57.199Z,99.90
2019-04-30T19:47:24.516Z,99.90
2019-04-30T19:49:28.765Z,99.90
2019-04-30T19:51:32.979Z,99.90
2019-04-30T19:53:49.115Z,99.90
2019-04-30T19:55:53.280Z,99.90
2019-04-30T20:00:12.631Z,99.90
2019-04-30T20:02:19.103Z,99.90
2019-04-30T20:04:33.178Z,99.90
2019-04-30T20:06:33.148Z,99.90
2019-04-30T20:08:39.637Z,99.90
2019-04-30T20:10:43.533Z,99.90
2019-04-30T20:12:49.294Z,99.90
2019-04-30T20:14:53.543Z,99.90
2019-04-30T20:16:59.000Z,99.90
2019-04-30T20:19:03.352Z,99.90
2019-04-30T20:21:11.057Z,99.90
2019-04-30T20:23:15.185Z,99.90
2019-04-30T20:25:19.257Z,99.90
2019-04-30T20:27:23.180Z,99.90
2019-04-30T20:29:28.896Z,99.90
2019-04-30T20:31:33.146Z,99.90
2019-04-30T20:33:38.858Z,99.90
2019-04-30T20:35:42.887Z,99.90
2019-04-30T20:38:04.688Z,99.90
2019-04-30T20:40:13.725Z,99.90
2019-04-30T20:42:17.833Z,99.90
2019-04-30T20:44:21.868Z,99.90
2019-04-30T20:46:32.639Z,99.90
2019-04-30T20:48:31.752Z,99.90
2019-04-30T20:50:36.185Z,99.90
2019-04-30T20:52:49.058Z,99.90
2019-04-30T20:54:54.079Z,99.90
2019-04-30T20:57:36.680Z,99.90
2019-04-30T20:59:40.902Z,99.90
2019-04-30T21:03:11.509Z,99.90
2019-04-30T21:04:14.832Z,99.90
2019-04-30T21:06:19.746Z,99.90
2019-04-30T21:08:24.072Z,99.90
2019-04-30T21:11:19.374Z,99.90
2019-04-30T21:24:08.806Z,99.90
2019-04-30T21:35:07.974Z,99.90
2019-04-30T21:37:12.791Z,99.90
2019-04-30T21:39:17.105Z,99.90
2019-04-30T21:41:27.031Z,99.90
2019-04-30T21:43:34.280Z,99.90
2019-04-30T21:45:59.457Z,99.90
2019-04-30T21:48:26.046Z,99.90
2019-04-30T22:02:46.700Z,99.90
2019-04-30T22:04:50.524Z,99.90
2019-04-30T22:06:55.081Z,99.90
2019-04-30T22:09:28.751Z,99.90
2019-04-30T22:11:44.239Z,99.90
2019-04-30T22:13:44.588Z,99.90
2019-04-30T22:25:26.812Z,99.90
2019-04-30T22:31:04.485Z,99.90
2019-04-30T22:33:39.041Z,99.90
2019-04-30T22:36:21.034Z,99.90
2019-04-30T22:38:25.759Z,99.90
2019-04-30T22:40:31.613Z,99.90
2019-04-30T22:44:40.293Z,99.90
2019-04-30T22:47:05.497Z,99.90
2019-04-30T22:49:09.925Z,99.90
2019-04-30T22:52:13.456Z,99.90
2019-04-30T22:54:53.724Z,99.90
2019-04-30T22:57:22.467Z,99.90
2019-04-30T23:00:04.998Z,99.90
2019-04-30T23:03:18.773Z,99.90
2019-04-30T23:04:58.237Z,99.90
2019-04-30T23:07:25.435Z,99.90
2019-04-30T23:09:29.652Z,99.90
2019-04-30T23:11:33.625Z,99.90
2019-04-30T23:13:37.560Z,99.90
2019-04-30T23:15:56.205Z,99.90
2019-04-30T23:18:32.275Z,99.90
2019-04-30T23:20:36.482Z,99.90
2019-04-30T23:25:33.705Z,99.90
2019-04-30T23:27:49.644Z,99.90
2019-04-30T23:30:23.909Z,99.90
2019-04-30T23:32:28.021Z,99.90
2019-04-30T23:35:06.814Z,99.90
2019-04-30T23:37:40.656Z,99.90
2019-04-30T23:39:56.679Z,99.90
2019-04-30T23:42:40.959Z,99.90
2019-04-30T23:44:56.852Z,99.90
2019-04-30T23:46:58.102Z,99.90
2019-04-30T23:49:02.153Z,99.90
2019-04-30T23:51:24.597Z,99.90
2019-04-30T23:53:28.507Z,99.90
2019-04-30T23:55:32.534Z,99.90
